createdAt,value
2023-02-13T00:02:46.474Z,83.37
2023-02-13T00:05:53.310Z,83.42
2023-02-13T00:08:59.244Z,83.38
2023-02-13T00:12:06.225Z,83.73
2023-02-13T00:15:14.841Z,84.06
2023-02-13T00:18:21.572Z,84.19
2023-02-13T00:21:27.473Z,83.67
2023-02-13T00:24:34.193Z,83.64
2023-02-13T00:27:40.052Z,83.51
2023-02-13T00:30:49.418Z,83.69
2023-02-13T00:33:55.766Z,83.43
2023-02-13T00:37:02.393Z,83.45
2023-02-13T00:40:11.229Z,83.91
2023-02-13T00:43:20.295Z,83.75
2023-02-13T00:46:29.045Z,84.00
2023-02-13T00:49:35.830Z,83.51
2023-02-13T00:52:41.754Z,82.51
2023-02-13T00:55:48.649Z,81.76
2023-02-13T00:58:54.577Z,81.85
2023-02-13T01:02:03.859Z,81.99
2023-02-13T01:05:11.575Z,81.49
2023-02-13T01:08:20.537Z,82.00
2023-02-13T01:11:26.722Z,81.54
2023-02-13T01:14:33.448Z,82.01
2023-02-13T01:17:42.494Z,82.39
2023-02-13T01:21:00.855Z,82.57
2023-02-13T01:24:09.049Z,82.07
2023-02-13T01:27:17.224Z,81.26
2023-02-13T01:30:24.502Z,80.93
2023-02-13T01:33:34.862Z,81.46
2023-02-13T01:36:40.698Z,81.60
2023-02-13T01:39:47.380Z,81.87
2023-02-13T01:42:53.335Z,81.90
2023-02-13T01:46:03.170Z,82.14
2023-02-13T01:49:29.448Z,81.98
2023-02-13T01:52:40.616Z,81.55
2023-02-13T01:55:55.959Z,81.95
2023-02-13T01:59:10.351Z,82.29
2023-02-13T02:02:17.764Z,82.65
2023-02-13T02:05:33.813Z,82.71
2023-02-13T02:08:40.168Z,83.33
2023-02-13T02:12:02.317Z,83.79
2023-02-13T02:15:12.068Z,84.02
2023-02-13T02:18:21.868Z,84.23
2023-02-13T02:22:19.337Z,84.62
2023-02-13T02:26:20.468Z,84.68
2023-02-13T02:30:11.698Z,84.54
2023-02-13T02:33:43.405Z,84.45
2023-02-13T02:37:14.744Z,84.63
2023-02-13T02:40:36.819Z,84.24
2023-02-13T02:44:01.871Z,84.80
2023-02-13T02:47:35.233Z,84.82
2023-02-13T02:50:56.862Z,85.16
2023-02-13T02:54:26.693Z,85.53
2023-02-13T02:57:49.361Z,85.46
2023-02-13T03:01:28.934Z,85.18
2023-02-13T03:04:56.191Z,85.49
2023-02-13T03:08:07.365Z,85.57
2023-02-13T03:11:41.572Z,85.05
2023-02-13T03:14:47.545Z,85.28
2023-02-13T03:18:06.971Z,84.87
2023-02-13T03:21:38.391Z,84.90
2023-02-13T03:25:05.498Z,84.98
2023-02-13T03:28:43.201Z,85.11
2023-02-13T03:32:02.628Z,85.34
2023-02-13T03:35:41.816Z,85.06
2023-02-13T03:39:01.548Z,85.61
2023-02-13T03:42:22.335Z,85.11
2023-02-13T03:45:47.946Z,85.16
2023-02-13T03:49:08.772Z,85.41
2023-02-13T03:52:28.099Z,85.85
2023-02-13T03:55:54.387Z,85.67
2023-02-13T03:59:17.851Z,85.89
2023-02-13T04:02:35.767Z,85.92
2023-02-13T04:05:50.153Z,85.96
2023-02-13T04:08:56.286Z,86.34
2023-02-13T04:12:17.357Z,86.26
2023-02-13T04:15:37.594Z,85.76
2023-02-13T04:18:47.053Z,86.29
2023-02-13T04:22:01.235Z,85.99
2023-02-13T04:25:08.633Z,85.75
2023-02-13T04:28:14.687Z,86.15
2023-02-13T04:31:24.043Z,86.09
2023-02-13T04:34:30.078Z,85.97
2023-02-13T04:37:36.747Z,85.48
2023-02-13T04:40:42.561Z,85.16
2023-02-13T04:43:49.332Z,85.02
2023-02-13T04:46:57.803Z,84.52
2023-02-13T04:50:04.610Z,84.44
2023-02-13T04:53:10.615Z,84.25
2023-02-13T04:56:19.634Z,84.56
2023-02-13T04:59:25.808Z,84.71
2023-02-13T05:02:35.636Z,84.18
2023-02-13T05:05:43.479Z,84.83
2023-02-13T05:08:50.392Z,84.75
2023-02-13T05:11:57.016Z,84.80
2023-02-13T05:15:03.712Z,85.37
2023-02-13T05:18:12.162Z,85.29
2023-02-13T05:21:31.244Z,84.71
2023-02-13T05:24:37.048Z,83.82
2023-02-13T05:27:43.830Z,84.11
2023-02-13T05:30:50.064Z,84.11
2023-02-13T05:33:59.443Z,84.37
2023-02-13T05:37:05.501Z,84.27
2023-02-13T05:40:14.078Z,84.47
2023-02-13T05:43:19.951Z,85.04
2023-02-13T05:46:27.151Z,85.34
2023-02-13T05:49:35.607Z,85.21
2023-02-13T05:52:42.282Z,85.19
2023-02-13T05:55:48.170Z,84.61
2023-02-13T05:58:55.942Z,85.06
2023-02-13T06:02:01.907Z,83.68
2023-02-13T06:05:11.630Z,83.58
2023-02-13T06:08:17.488Z,82.93
2023-02-13T06:11:24.644Z,82.99
2023-02-13T06:14:30.509Z,83.47
2023-02-13T06:17:37.307Z,83.86
2023-02-13T06:20:45.854Z,83.49
2023-02-13T06:23:52.601Z,82.85
2023-02-13T06:26:58.784Z,83.17
2023-02-13T06:30:05.528Z,82.48
2023-02-13T06:33:11.699Z,82.37
2023-02-13T06:36:21.118Z,81.95
2023-02-13T06:39:27.000Z,82.25
2023-02-13T06:42:33.679Z,81.83
2023-02-13T06:45:40.771Z,81.68
2023-02-13T06:48:56.550Z,81.76
2023-02-13T06:52:05.817Z,81.02
2023-02-13T06:55:12.537Z,80.46
2023-02-13T06:58:21.695Z,80.72
2023-02-13T07:01:28.539Z,80.60
2023-02-13T07:04:34.435Z,80.45
2023-02-13T07:07:50.728Z,80.26
2023-02-13T07:10:57.026Z,79.87
2023-02-13T07:14:04.959Z,78.93
2023-02-13T07:17:11.697Z,77.74
2023-02-13T07:20:18.602Z,77.83
2023-02-13T07:23:27.391Z,77.94
2023-02-13T07:26:36.003Z,76.81
2023-02-13T07:29:41.953Z,75.18
2023-02-13T07:32:48.738Z,73.36
2023-02-13T07:35:56.284Z,71.56
2023-02-13T07:39:11.769Z,71.25
2023-02-13T07:42:17.572Z,71.73
2023-02-13T07:45:24.413Z,68.76
2023-02-13T07:48:32.016Z,68.14
2023-02-13T07:51:38.793Z,69.03
2023-02-13T07:54:50.090Z,68.83
2023-02-13T07:57:57.054Z,69.55
2023-02-13T08:01:08.355Z,69.83
2023-02-13T08:04:15.491Z,69.64
2023-02-13T08:07:21.595Z,69.97
2023-02-13T08:10:45.008Z,70.96
2023-02-13T08:13:50.923Z,72.30
2023-02-13T08:16:58.584Z,73.42
2023-02-13T08:20:04.695Z,74.62
2023-02-13T08:23:14.975Z,74.46
2023-02-13T08:26:23.536Z,74.26
2023-02-13T08:29:30.344Z,74.46
2023-02-13T08:32:52.828Z,73.76
2023-02-13T08:36:00.583Z,74.34
2023-02-13T08:39:06.876Z,73.74
2023-02-13T08:42:16.577Z,73.73
2023-02-13T08:45:22.472Z,74.22
2023-02-13T08:48:29.363Z,74.19
2023-02-13T08:51:35.758Z,74.64
2023-02-13T08:54:42.579Z,74.75
2023-02-13T08:57:51.113Z,75.11
2023-02-13T09:00:58.088Z,75.71
2023-02-13T09:04:03.967Z,75.83
2023-02-13T09:07:10.751Z,75.63
2023-02-13T09:10:16.614Z,74.62
2023-02-13T09:13:25.959Z,75.52
2023-02-13T09:16:32.013Z,75.66
2023-02-13T09:19:38.687Z,75.54
2023-02-13T09:22:45.260Z,75.56
2023-02-13T09:25:51.983Z,75.25
2023-02-13T09:29:00.506Z,76.42
2023-02-13T09:32:09.115Z,75.43
2023-02-13T09:35:15.568Z,75.04
2023-02-13T09:38:22.314Z,74.59
2023-02-13T09:41:34.244Z,73.70
2023-02-13T09:44:48.721Z,74.01
2023-02-13T09:47:55.033Z,73.82
2023-02-13T09:51:03.521Z,74.10
2023-02-13T09:54:16.787Z,74.32
2023-02-13T09:57:34.172Z,74.65
2023-02-13T10:00:49.043Z,74.75
2023-02-13T10:04:39.689Z,75.84
2023-02-13T10:08:01.118Z,76.60
2023-02-13T10:11:32.345Z,76.08
2023-02-13T10:14:57.238Z,76.63
2023-02-13T10:18:17.992Z,77.18
2023-02-13T10:21:31.561Z,77.59
2023-02-13T10:24:48.169Z,77.64
2023-02-13T10:28:04.449Z,77.96
2023-02-13T10:31:18.780Z,79.07
2023-02-13T10:34:35.353Z,79.36
2023-02-13T10:37:42.876Z,79.57
2023-02-13T10:41:08.385Z,80.65
2023-02-13T10:44:49.666Z,80.75
2023-02-13T10:48:18.177Z,81.20
2023-02-13T10:51:41.101Z,80.80
2023-02-13T10:55:27.870Z,80.62
2023-02-13T10:58:57.811Z,80.94
2023-02-13T11:02:26.539Z,80.51
2023-02-13T11:05:39.913Z,80.51
2023-02-13T11:08:51.389Z,81.11
2023-02-13T11:11:58.498Z,82.31
2023-02-13T11:15:07.777Z,81.79
2023-02-13T11:18:24.878Z,81.27
2023-02-13T11:21:38.896Z,81.02
2023-02-13T11:25:02.630Z,79.79
2023-02-13T11:28:21.248Z,78.51
2023-02-13T11:31:36.366Z,79.72
2023-02-13T11:34:42.568Z,80.51
2023-02-13T11:37:49.302Z,80.45
2023-02-13T11:41:13.250Z,80.68
2023-02-13T11:44:30.496Z,80.69
2023-02-13T11:47:42.136Z,80.28
2023-02-13T11:50:56.890Z,79.98
2023-02-13T11:54:03.496Z,80.68
2023-02-13T11:57:26.258Z,81.52
2023-02-13T12:00:40.428Z,81.62
2023-02-13T12:03:47.214Z,81.60
2023-02-13T12:07:05.649Z,81.21
2023-02-13T12:10:24.703Z,81.87
2023-02-13T12:13:40.446Z,81.61
2023-02-13T12:16:53.855Z,80.63
2023-02-13T12:20:00.382Z,80.88
2023-02-13T12:23:27.910Z,79.69
2023-02-13T12:26:43.721Z,80.53
2023-02-13T12:30:28.672Z,79.82
2023-02-13T12:34:15.805Z,80.16
2023-02-13T12:37:50.328Z,80.35
2023-02-13T12:41:22.377Z,80.09
2023-02-13T12:44:57.112Z,79.85
2023-02-13T12:48:31.375Z,80.23
2023-02-13T12:51:56.578Z,80.35
2023-02-13T12:55:36.169Z,81.59
2023-02-13T12:59:03.970Z,81.27
2023-02-13T13:03:06.461Z,81.18
2023-02-13T13:06:53.756Z,81.46
2023-02-13T13:10:34.153Z,82.35
2023-02-13T13:14:00.956Z,82.17
2023-02-13T13:17:27.262Z,82.47
2023-02-13T13:21:00.107Z,82.08
2023-02-13T13:24:36.990Z,82.66
2023-02-13T13:27:50.811Z,83.27
2023-02-13T13:30:58.890Z,83.07
2023-02-13T13:34:16.862Z,82.58
2023-02-13T13:37:38.725Z,82.96
2023-02-13T13:41:00.036Z,82.79
2023-02-13T13:44:41.027Z,82.20
2023-02-13T13:48:38.415Z,81.56
2023-02-13T13:51:44.478Z,81.43
2023-02-13T13:54:52.447Z,81.89
2023-02-13T13:58:06.812Z,81.53
2023-02-13T14:01:34.827Z,81.64
2023-02-13T14:04:44.390Z,81.46
2023-02-13T14:07:55.432Z,81.87
2023-02-13T14:11:07.217Z,81.99
2023-02-13T14:14:58.310Z,81.45
2023-02-13T14:18:11.487Z,81.30
2023-02-13T14:21:27.715Z,81.42
2023-02-13T14:24:36.311Z,81.53
2023-02-13T14:27:44.203Z,81.57
2023-02-13T14:30:56.888Z,81.55
2023-02-13T14:34:08.508Z,82.67
2023-02-13T14:37:30.302Z,81.86
2023-02-13T14:40:52.650Z,79.85
2023-02-13T14:43:59.374Z,80.58
2023-02-13T14:47:27.242Z,80.12
2023-02-13T14:50:51.027Z,80.44
2023-02-13T14:54:08.352Z,81.00
2023-02-13T14:57:24.699Z,80.73
2023-02-13T15:00:44.523Z,80.83
2023-02-13T15:04:06.396Z,80.04
2023-02-13T15:07:24.275Z,79.92
2023-02-13T15:10:47.152Z,80.31
2023-02-13T15:13:54.104Z,80.00
2023-02-13T15:17:09.167Z,80.57
2023-02-13T15:20:30.451Z,80.73
2023-02-13T15:23:37.981Z,80.85
2023-02-13T15:26:45.079Z,81.17
2023-02-13T15:30:05.004Z,81.00
2023-02-13T15:33:22.528Z,80.77
2023-02-13T15:36:43.358Z,80.42
2023-02-13T15:39:50.088Z,80.34
2023-02-13T15:42:59.213Z,80.96
2023-02-13T15:46:21.579Z,80.86
2023-02-13T15:49:30.483Z,79.78
2023-02-13T15:52:42.698Z,80.11
2023-02-13T15:56:02.264Z,79.89
2023-02-13T15:59:09.428Z,79.00
2023-02-13T16:02:22.737Z,79.00
2023-02-13T16:05:40.367Z,79.03
2023-02-13T16:08:58.162Z,78.96
2023-02-13T16:12:10.127Z,79.10
2023-02-13T16:15:23.965Z,78.97
2023-02-13T16:18:30.678Z,78.63
2023-02-13T16:21:36.872Z,78.59
2023-02-13T16:24:53.879Z,78.49
2023-02-13T16:28:05.913Z,78.37
2023-02-13T16:31:19.993Z,78.58
2023-02-13T16:34:31.179Z,78.80
2023-02-13T16:37:37.886Z,78.64
2023-02-13T16:40:48.952Z,78.72
2023-02-13T16:43:57.473Z,78.96
2023-02-13T16:47:06.018Z,78.90
2023-02-13T16:50:19.221Z,78.62
2023-02-13T16:53:25.309Z,78.35
2023-02-13T16:56:43.515Z,77.42
2023-02-13T17:00:22.680Z,77.10
2023-02-13T17:03:31.175Z,76.45
2023-02-13T17:06:37.074Z,76.86
2023-02-13T17:09:44.145Z,76.15
2023-02-13T17:12:54.692Z,75.90
2023-02-13T17:16:01.708Z,76.35
2023-02-13T17:19:07.865Z,76.48
2023-02-13T17:22:36.426Z,76.12
2023-02-13T17:25:43.826Z,76.74
2023-02-13T17:28:53.218Z,76.20
2023-02-13T17:32:00.879Z,75.84
2023-02-13T17:35:08.259Z,75.72
2023-02-13T17:38:17.581Z,76.10
2023-02-13T17:41:26.553Z,76.08
2023-02-13T17:44:35.243Z,76.07
2023-02-13T17:47:41.963Z,76.46
2023-02-13T17:50:48.521Z,76.25
2023-02-13T17:53:56.826Z,75.85
2023-02-13T17:57:03.108Z,76.50
2023-02-13T18:00:15.110Z,76.43
2023-02-13T18:03:21.081Z,77.39
2023-02-13T18:06:27.862Z,77.46
2023-02-13T18:09:33.897Z,77.53
2023-02-13T18:12:41.892Z,77.40
2023-02-13T18:15:50.522Z,77.53
2023-02-13T18:18:57.416Z,77.79
2023-02-13T18:22:03.427Z,78.15
2023-02-13T18:25:12.063Z,78.75
2023-02-13T18:28:18.035Z,79.70
2023-02-13T18:31:27.446Z,80.05
2023-02-13T18:34:33.442Z,79.75
2023-02-13T18:37:40.656Z,80.00
2023-02-13T18:40:46.687Z,79.81
2023-02-13T18:43:53.459Z,79.92
2023-02-13T18:47:04.987Z,80.27
2023-02-13T18:50:13.777Z,80.46
2023-02-13T18:53:19.825Z,80.79
2023-02-13T18:56:26.717Z,80.63
2023-02-13T18:59:32.832Z,80.21
2023-02-13T19:02:42.294Z,80.11
2023-02-13T19:05:48.233Z,79.68
2023-02-13T19:08:55.124Z,79.57
2023-02-13T19:12:01.206Z,79.48
2023-02-13T19:15:16.845Z,79.00
2023-02-13T19:18:27.723Z,78.90
2023-02-13T19:21:37.830Z,79.49
2023-02-13T19:24:44.523Z,79.40
2023-02-13T19:27:51.748Z,79.15
2023-02-13T19:30:58.323Z,79.41
2023-02-13T19:34:11.617Z,79.57
2023-02-13T19:37:17.717Z,79.43
2023-02-13T19:40:24.517Z,78.97
2023-02-13T19:43:32.286Z,78.85
2023-02-13T19:46:45.924Z,78.54
2023-02-13T19:49:57.861Z,78.32
2023-02-13T19:53:07.922Z,78.39
2023-02-13T19:56:15.391Z,78.26
2023-02-13T19:59:26.583Z,78.25
2023-02-13T20:02:37.908Z,77.79
2023-02-13T20:05:50.124Z,77.91
2023-02-13T20:08:56.299Z,78.20
2023-02-13T20:12:03.123Z,78.32
2023-02-13T20:15:10.405Z,78.12
2023-02-13T20:18:17.546Z,78.01
2023-02-13T20:21:26.461Z,77.74
2023-02-13T20:24:33.342Z,77.78
2023-02-13T20:27:42.699Z,77.66
2023-02-13T20:30:51.753Z,77.55
2023-02-13T20:33:58.736Z,77.67
2023-02-13T20:37:08.173Z,77.46
2023-02-13T20:40:15.991Z,77.03
2023-02-13T20:43:30.135Z,77.39
2023-02-13T20:46:43.521Z,77.41
2023-02-13T20:49:51.154Z,76.96
2023-02-13T20:52:59.640Z,77.43
2023-02-13T20:56:10.841Z,76.98
2023-02-13T20:59:16.733Z,77.36
2023-02-13T21:02:23.479Z,76.74
2023-02-13T21:05:39.936Z,77.50
2023-02-13T21:08:50.008Z,77.50
2023-02-13T21:11:55.971Z,77.56
2023-02-13T21:15:02.663Z,76.98
2023-02-13T21:18:09.770Z,77.48
2023-02-13T21:21:16.971Z,77.01
2023-02-13T21:24:26.655Z,77.55
2023-02-13T21:27:33.408Z,77.97
2023-02-13T21:30:40.058Z,78.34
2023-02-13T21:33:46.985Z,78.22
2023-02-13T21:36:53.178Z,78.37
2023-02-13T21:40:02.542Z,78.33
2023-02-13T21:43:08.545Z,77.92
2023-02-13T21:46:18.684Z,78.28
2023-02-13T21:49:25.293Z,77.75
2023-02-13T21:52:32.191Z,77.89
2023-02-13T21:55:40.786Z,77.86
2023-02-13T21:58:49.291Z,78.32
2023-02-13T22:01:58.296Z,78.73
2023-02-13T22:05:05.150Z,78.59
2023-02-13T22:08:13.910Z,78.46
2023-02-13T22:11:23.411Z,78.48
2023-02-13T22:14:29.317Z,78.38
2023-02-13T22:17:37.918Z,78.37
2023-02-13T22:20:43.843Z,78.91
2023-02-13T22:23:52.681Z,78.41
2023-02-13T22:27:01.287Z,78.79
2023-02-13T22:30:09.734Z,78.63
2023-02-13T22:33:17.049Z,78.87
2023-02-13T22:36:24.415Z,78.83
2023-02-13T22:39:30.372Z,79.56
2023-02-13T22:42:39.738Z,79.32
2023-02-13T22:45:45.762Z,79.51
2023-02-13T22:48:55.025Z,79.74
2023-02-13T22:52:01.048Z,79.57
2023-02-13T22:55:08.748Z,80.13
2023-02-13T22:58:17.382Z,80.55
2023-02-13T23:01:27.486Z,80.76
2023-02-13T23:04:34.130Z,80.89
2023-02-13T23:07:40.869Z,81.17
2023-02-13T23:11:08.142Z,80.93
2023-02-13T23:14:16.609Z,81.37
2023-02-13T23:17:34.880Z,81.13
2023-02-13T23:20:41.970Z,81.36
2023-02-13T23:23:48.019Z,81.55
2023-02-13T23:26:55.253Z,81.54
2023-02-13T23:30:04.774Z,81.37
2023-02-13T23:33:11.686Z,81.63
2023-02-13T23:36:17.539Z,81.86
2023-02-13T23:39:24.716Z,81.87
2023-02-13T23:42:31.017Z,81.82
2023-02-13T23:45:40.724Z,81.28
2023-02-13T23:48:46.911Z,81.77
2023-02-13T23:51:53.704Z,81.63
2023-02-13T23:54:59.562Z,82.13
2023-02-13T23:58:06.320Z,82.00
